• Join FlightAware (Why Join?)
  • Login
  • US Flag 
12:09PM EDT


 

Airport Tracker/Info


-or-


 

Live Flight TrackerFlight Track Log ✈ OPT332 ✈ 21-Sep-2013 ✈ KEGE - KHOU

Flight Track Log - Related Links

Times and Time Zones

All times are in EDT time to prevent confusion due to time zone crossing. See the OPT332 flight status page for this flight to view local times or setup timezone preferences in your user account.

Time Position Orientation Groundspeed Altitude Reporting Facility
EDT Latitude Longitude Course Direction KTS MPH feet Rate Location/Type
10:09AM 32.1760 -97.3820 135° Southeast 466 536 45,000  Level FlightAware ADS-B
10:10AM 32.1340 -97.3470 135° Southeast 457 526 45,000  Level FlightAware ADS-B
10:11AM 31.9710 -97.2440 152° Southeast 457 526 45,000 -600 Level FlightAware ADS-B
11:09AM 39.6092 -106.9808 229° Southwest 160 184 11,400 -540 Descending Denver Center
11:10AM 39.6486 -107.0169 325° Northwest 207 238 14,000 1,620 Climbing Denver Center
11:11AM 39.7311 -106.9853 16° North 310 357 14,800 600 Climbing Denver Center
11:12AM 39.8261 -106.9389 21° North 367 422 15,300 2,100 Climbing Denver Center
11:13AM 40.0000 -106.5084 90° East  Level FlightAware Approximate
11:13AM 39.8514 -106.8194 75° East 351 404 19,200  Level Denver Center
11:14AM 39.8675 -106.7056 80° East 325 374 21,700 2,100 Climbing Denver Center
11:15AM 39.8661 -106.5819 91° East 338 389 23,600 1,740 Climbing Denver Center
11:16AM 39.8650 -106.4322 91° East 362 417 25,400 1,620 Climbing Denver Center
11:17AM 39.8489 -106.2953 99° East 381 438 27,000 1,440 Climbing Denver Center
11:18AM 39.8217 -106.1539 104° East 400 460 28,400 960 Climbing Denver Center
11:19AM 39.7597 -105.9908 116° Southeast 426 490 29,000 240 Climbing Denver Center
11:20AM 39.6844 -105.8600 127° Southeast 448 516 29,000 300 Level Denver Center
11:21AM 39.6047 -105.7256 128° Southeast 469 540 29,700 1,020 Climbing Denver Center
11:22AM 39.5261 -105.5956 128° Southeast 463 533 31,200 1,440 Climbing Denver Center
11:23AM 39.4517 -105.4697 127° Southeast 446 513 32,700 1,560 Climbing Denver Center
11:24AM 39.3611 -105.3211 128° Southeast 441 507 34,500 1,560 Climbing Denver Center
11:25AM 39.2881 -105.1989 128° Southeast 435 501 36,000 1,380 Climbing Denver Center
11:26AM 39.2161 -105.0800 128° Southeast 427 491 37,400 1,320 Climbing Denver Center
11:27AM 39.1453 -104.9644 128° Southeast 416 479 38,800 1,140 Climbing Denver Center
11:28AM 39.0758 -104.8486 128° Southeast 412 474 39,800 1,020 Climbing Denver Center
11:29AM 38.9900 -104.7097 128° Southeast 416 479 41,000 960 Climbing Denver Center
11:30AM 38.9181 -104.5947 129° Southeast 417 480 41,800 720 Climbing Denver Center
11:31AM 38.8417 -104.4814 131° Southeast 420 483 42,600 720 Climbing Denver Center
11:32AM 38.7628 -104.3706 132° Southeast 421 484 43,400 720 Climbing Denver Center
11:34AM 38.6861 -104.2600 132° Southeast 418 481 44,200 720 Climbing Denver Center
11:35AM 38.6086 -104.1519 133° Southeast 413 475 45,000 360 Climbing Denver Center
11:36AM 38.5247 -104.0342 132° Southeast 413 475 45,000  Level Denver Center
11:37AM 38.4358 -103.9086 132° Southeast 421 484 45,000  Level Denver Center
11:38AM 38.3586 -103.7997 132° Southeast 427 491 45,000  Level Denver Center
11:39AM 38.2675 -103.6703 132° Southeast 436 502 45,000  Level Denver Center
11:40AM 38.1886 -103.5608 133° Southeast 437 503 45,000  Level Denver Center
11:41AM 38.0958 -103.4311 132° Southeast 443 510 45,000  Level Denver Center
11:42AM 38.0158 -103.3208 133° Southeast 442 509 45,000  Level Denver Center
11:43AM 37.9219 -103.1908 132° Southeast 446 513 45,000  Level Denver Center
11:44AM 37.8414 -103.0789 132° Southeast 447 514 45,000  Level Denver Center
11:45AM 37.7461 -102.9481 133° Southeast 450 518 45,000  Level Denver Center
11:46AM 37.6494 -102.8175 133° Southeast 453 521 45,000  Level Denver Center
11:47AM 37.5522 -102.6853 133° Southeast 458 527 45,000  Level Denver Center
11:48AM 37.4706 -102.5744 133° Southeast 452 520 45,000  Level Denver Center
11:49AM 37.3792 -102.4514 133° Southeast 458 527 45,000  Level Denver Center
11:50AM 37.2828 -102.3219 133° Southeast 456 525 45,000  Level Denver Center
11:51AM 37.1972 -102.2125 134° Southeast 458 527 45,000  Level Denver Center
11:52AM 37.0997 -102.1247 144° Southeast 452 520 45,000  Level Denver Center
11:54AM 36.9542 -101.9894 143° Southeast 455 524 45,000  Level Albuquerque Center
11:55AM 36.8553 -101.8994 144° Southeast 458 527 45,000  Level Albuquerque Center
11:56AM 36.7411 -101.7939 143° Southeast 458 527 45,000  Level Albuquerque Center
11:57AM 36.6428 -101.7044 144° Southeast 458 527 45,000  Level Albuquerque Center
11:58AM 36.5447 -101.6147 144° Southeast 458 527 45,000  Level Kansas City Center
11:59AM 36.4456 -101.5256 144° Southeast 459 528 45,000  Level Kansas City Center
12:00PM 36.3467 -101.4375 144° Southeast 459 528 45,000  Level Kansas City Center
12:01PM 36.2214 -101.3236 144° Southeast 463 533 45,000  Level Kansas City Center
12:02PM 36.1172 -101.2283 144° Southeast 464 534 45,000  Level Kansas City Center
12:03PM 36.0131 -101.1347 144° Southeast 462 532 45,000  Level Kansas City Center
12:04PM 35.9083 -101.0414 144° Southeast 462 532 45,000  Level Kansas City Center
12:05PM 35.7914 -100.9372 144° Southeast 465 535 45,000  Level Albuquerque Center
12:06PM 35.6756 -100.8358 145° Southeast 465 535 45,000  Level Albuquerque Center
12:07PM 35.5708 -100.7422 144° Southeast 464 534 45,000  Level Albuquerque Center
12:08PM 35.4650 -100.6497 145° Southeast 465 535 45,000  Level Albuquerque Center
12:09PM 35.3497 -100.5489 144° Southeast 465 535 45,000  Level Albuquerque Center
12:10PM 35.2442 -100.4564 144° Southeast 466 536 45,000  Level Albuquerque Center
12:11PM 35.1467 -100.3719 145° Southeast 467 537 45,000  Level Albuquerque Center
12:12PM 35.0322 -100.2736 145° Southeast 466 536 45,000  Level Albuquerque Center
12:13PM 34.9264 -100.1817 145° Southeast 466 536 45,000  Level Albuquerque Center
12:14PM 34.8211 -100.0900 144° Southeast 466 536 45,000  Level Albuquerque Center
12:15PM 34.7156 -99.9997 145° Southeast 464 534 45,000  Level Albuquerque Center
12:16PM 34.5881 -99.8919 145° Southeast 464 534 45,000  Level Albuquerque Center
12:17PM 34.5356 -99.8436 143° Southeast 457 526 45,000  Level Fort Worth Center
12:18PM 34.4144 -99.7444 146° Southeast 463 533 45,000  Level Fort Worth Center
12:19PM 34.3117 -99.6539 144° Southeast 474 545 45,000  Level Fort Worth Center
12:20PM 34.2069 -99.5631 144° Southeast 468 539 45,000  Level Fort Worth Center
12:21PM 34.0978 -99.4778 147° Southeast 463 533 45,000  Level Fort Worth Center
12:22PM 33.9928 -99.3850 144° Southeast 463 533 45,000  Level Fort Worth Center
12:23PM 33.8878 -99.2975 145° Southeast 463 533 45,000  Level Fort Worth Center
12:24PM 33.7806 -99.2053 144° Southeast 463 533 45,000  Level Fort Worth Center
12:25PM 33.6733 -99.1206 147° Southeast 463 533 45,000  Level Fort Worth Center
12:26PM 33.5825 -99.0442 145° Southeast 457 526 45,000  Level Fort Worth Center
12:27PM 33.4817 -98.9403 139° Southeast 469 540 45,000  Level Fort Worth Center
12:28PM 33.3889 -98.8292 135° Southeast 469 540 45,000  Level Fort Worth Center
12:29PM 33.2983 -98.7183 134° Southeast 469 540 45,000  Level Fort Worth Center
12:30PM 33.2075 -98.6078 134° Southeast 469 540 45,000  Level Fort Worth Center
12:31PM 33.1167 -98.4997 135° Southeast 464 534 45,000  Level Fort Worth Center
12:32PM 33.0300 -98.3947 135° Southeast 454 522 45,000  Level Fort Worth Center
12:33PM 32.9347 -98.2847 136° Southeast 454 522 45,000  Level Fort Worth Center
12:34PM 32.8436 -98.1725 134° Southeast 459 528 45,000  Level Fort Worth Center
12:35PM 32.7522 -98.0656 135° Southeast 459 528 45,000  Level Fort Worth Center
12:37PM 32.5653 -97.8472 135° Southeast 459 528 45,000  Level Fort Worth Center
12:43PM 31.9391 -97.2235 152° Southeast 456 525 45,000  Level FlightAware ADS-B
12:44PM 31.8765 -97.1838 152° Southeast 456 525 45,000  Level FlightAware ADS-B
12:44PM 31.8189 -97.1474 152° Southeast 457 526 45,000  Level FlightAware ADS-B
12:45PM 31.7630 -97.1120 152° Southeast 457 526 45,000  Level FlightAware ADS-B
12:45PM 31.7063 -97.0762 152° Southeast 456 525 45,000  Level FlightAware ADS-B
12:46PM 31.6486 -97.0398 152° Southeast 455 524 45,000  Level FlightAware ADS-B
12:46PM 31.5912 -97.0037 152° Southeast 455 524 45,000  Level FlightAware ADS-B
12:47PM 31.5357 -96.9688 152° Southeast 455 524 45,000  Level FlightAware ADS-B
12:47PM 31.4767 -96.9318 152° Southeast 454 522 45,000  Level FlightAware ADS-B
12:48PM 31.4208 -96.8968 152° Southeast 454 522 45,000 -420 Level FlightAware ADS-B
12:48PM 31.3622 -96.8602 152° Southeast 453 521 44,600 -1,200 Descending FlightAware ADS-B
12:49PM 31.3071 -96.8257 152° Southeast 445 512 43,800 -2,100 Descending FlightAware ADS-B
12:49PM 31.2518 -96.7913 152° Southeast 446 513 42,500 -2,460 Descending FlightAware ADS-B
12:50PM 31.2185 -96.7710 152° Southeast 445 512 41,800 -2,460 Descending FlightAware ADS-B
12:50PM 31.1918 -96.7591 159° South 439 505 41,200 -2,580 Descending FlightAware ADS-B
12:50PM 31.1823 -96.7559 164° South 436 502 41,000 -2,520 Descending FlightAware ADS-B
12:50PM 31.1581 -96.7503 169° South 432 497 40,500 -2,580 Descending FlightAware ADS-B
12:51PM 31.0984 -96.7412 173° South 428 493 39,200 -2,460 Descending FlightAware ADS-B
12:51PM 31.0373 -96.7313 172° South 434 499 38,000 -2,460 Descending FlightAware ADS-B
12:52PM 30.9764 -96.7216 172° South 438 504 36,700 -2,580 Descending FlightAware ADS-B
12:52PM 30.9151 -96.7118 172° South 433 498 35,400 -2,460 Descending FlightAware ADS-B
12:53PM 30.8559 -96.7024 172° South 423 487 34,200 -2,820 Descending FlightAware ADS-B
12:53PM 30.7982 -96.6934 172° South 417 480 32,600 -3,300 Descending FlightAware ADS-B
12:54PM 30.7391 -96.6841 172° South 420 483 30,900 -3,300 Descending FlightAware ADS-B
12:54PM 30.7167 -96.6801 171° South 424 488 30,300 -3,480 Descending FlightAware ADS-B
12:54PM 30.7012 -96.6759 167° South 432 497 29,800 -3,480 Descending FlightAware ADS-B
12:54PM 30.6809 -96.6682 162° South 444 511 29,200 -3,180 Descending FlightAware ADS-B
12:54PM 30.6658 -96.6607 157° South 451 519 28,800 -3,180 Descending FlightAware ADS-B
12:55PM 30.6493 -96.6507 152° Southeast 458 527 28,300 -3,180 Descending FlightAware ADS-B
12:55PM 30.6314 -96.6375 148° Southeast 465 535 27,800 -3,180 Descending FlightAware ADS-B
12:55PM 30.6119 -96.6194 141° Southeast 471 542 27,200 -3,660 Descending FlightAware ADS-B
12:55PM 30.5619 -96.5678 138° Southeast 476 548 25,300 -3,660 Descending FlightAware ADS-B
12:56PM 30.5125 -96.5177 139° Southeast 461 531 23,500 -3,600 Descending FlightAware ADS-B
12:56PM 30.4646 -96.4690 139° Southeast 441 507 21,700 -3,600 Descending FlightAware ADS-B
12:57PM 30.4194 -96.4229 139° Southeast 423 487 19,900 -3,660 Descending FlightAware ADS-B
12:57PM 30.3751 -96.3779 139° Southeast 411 473 18,000 -3,660 Descending FlightAware ADS-B
12:58PM 30.3321 -96.3342 139° Southeast 403 464 16,200 -3,600 Descending FlightAware ADS-B
12:58PM 30.2905 -96.2920 139° Southeast 390 449 14,400 -3,600 Descending FlightAware ADS-B
12:59PM 30.2484 -96.2494 139° Southeast 381 438 12,500 -3,000 Descending FlightAware ADS-B
12:59PM 30.2086 -96.2091 139° Southeast 377 434 11,300 -1,440 Descending FlightAware ADS-B
01:00PM 30.1687 -96.1687 139° Southeast 373 429 11,100 -240 Descending FlightAware ADS-B
01:00PM 30.1301 -96.1290 138° Southeast 367 422 11,100 -300 Level FlightAware ADS-B
01:01PM 30.0920 -96.0894 138° Southeast 373 429 10,800 -840 Descending FlightAware ADS-B
01:01PM 30.0509 -96.0466 138° Southeast 382 440 10,300 -840 Descending FlightAware ADS-B
01:02PM 30.0173 -96.0126 139° Southeast 328 377 10,000 -780 Descending FlightAware ADS-B
01:02PM 30.0031 -95.9986 140° Southeast 309 356 9,800 -1,140 Descending FlightAware ADS-B
01:02PM 29.9997 -95.9956 143° Southeast 306 352 9,700 -1,140 Descending FlightAware ADS-B
01:02PM 29.9904 -95.9881 145° Southeast 299 344 9,600 -1,020 Descending FlightAware ADS-B
01:02PM 29.9795 -95.9781 142° Southeast 292 336 9,400 -1,020 Descending FlightAware ADS-B
01:03PM 29.9721 -95.9704 138° Southeast 287 330 9,300 -1,080 Descending FlightAware ADS-B
01:03PM 29.9572 -95.9547 138° Southeast 284 327 9,000 -1,140 Descending FlightAware ADS-B
01:03PM 29.9403 -95.9372 138° Southeast 285 328 8,700 -960 Descending FlightAware ADS-B
01:03PM 29.9251 -95.9220 139° Southeast 288 331 8,500 -1,020 Descending FlightAware ADS-B
01:04PM 29.9095 -95.9066 139° Southeast 290 334 8,200 -1,020 Descending FlightAware ADS-B
01:04PM 29.8936 -95.8909 139° Southeast 291 335 8,000 -1,020 Descending FlightAware ADS-B
01:04PM 29.8782 -95.8757 139° Southeast 292 336 7,700 -1,020 Descending FlightAware ADS-B
01:04PM 29.8623 -95.8602 140° Southeast 292 336 7,500 -1,020 Descending FlightAware ADS-B
01:05PM 29.8461 -95.8443 140° Southeast 294 338 7,200 -780 Descending FlightAware ADS-B
01:05PM 29.8302 -95.8287 140° Southeast 290 334 7,100 -240 Descending FlightAware ADS-B
01:05PM 29.8141 -95.8129 140° Southeast 291 335 7,100  Level FlightAware ADS-B
01:05PM 29.7976 -95.7968 140° Southeast 291 335 7,100  Level FlightAware ADS-B
01:06PM 29.7818 -95.7813 140° Southeast 291 335 7,100  Level FlightAware ADS-B
01:06PM 29.7661 -95.7659 140° Southeast 287 330 7,100  Level FlightAware ADS-B
01:06PM 29.7511 -95.7513 140° Southeast 259 298 7,100 -420 Level FlightAware ADS-B
01:07PM 29.7372 -95.7379 140° Southeast 247 284 6,900 -1,020 Descending FlightAware ADS-B
01:07PM 29.7242 -95.7251 139° Southeast 245 282 6,600 -1,080 Descending FlightAware ADS-B
01:07PM 29.7118 -95.7130 140° Southeast 242 278 6,400 -1,080 Descending FlightAware ADS-B
01:07PM 29.6988 -95.7003 140° Southeast 240 276 6,100 -600 Descending FlightAware ADS-B
01:08PM 29.6854 -95.6872 140° Southeast 237 273 6,100  Level FlightAware ADS-B
01:08PM 29.6727 -95.6748 140° Southeast 231 266 6,100  Level FlightAware ADS-B
01:08PM 29.6601 -95.6624 139° Southeast 233 268 6,100  Level FlightAware ADS-B
01:08PM 29.6475 -95.6500 139° Southeast 238 274 6,100  Level FlightAware ADS-B
01:09PM 29.6337 -95.6366 140° Southeast 246 283 6,100  Level FlightAware ADS-B
01:09PM 29.6080 -95.6116 140° Southeast 246 283 6,100  Level FlightAware ADS-B
01:09PM 29.5940 -95.5980 140° Southeast 246 283 6,100 -660 Level FlightAware ADS-B
01:10PM 29.5629 -95.5677 140° Southeast 241 277 5,600 -840 Descending FlightAware ADS-B
01:10PM 29.5583 -95.5633 140° Southeast 246 283 5,500 -1,020 Descending FlightAware ADS-B
01:10PM 29.5456 -95.5510 140° Southeast 231 266 5,200 -1,020 Descending FlightAware ADS-B
01:11PM 29.5329 -95.5386 140° Southeast 221 254 5,000 -1,020 Descending FlightAware ADS-B
01:11PM 29.5214 -95.5275 140° Southeast 213 245 4,700 -1,140 Descending FlightAware ADS-B
01:11PM 29.5062 -95.5128 140° Southeast 204 235 4,400 -840 Descending FlightAware ADS-B
01:11PM 29.5051 -95.5116 138° Southeast 205 236 4,400 -840 Level FlightAware ADS-B
01:11PM 29.4922 -95.4977 137° Southeast 199 229 4,100 -1,200 Descending FlightAware ADS-B
01:12PM 29.4881 -95.4887 118° Southeast 187 215 3,900 -1,080 Descending FlightAware ADS-B
01:12PM 29.4860 -95.4799 105° East 184 212 3,800 -660 Descending FlightAware ADS-B
01:12PM 29.4857 -95.4700 92° East 183 211 3,700 -780 Descending FlightAware ADS-B
01:12PM 29.4875 -95.4593 79° East 183 211 3,500 -720 Descending FlightAware ADS-B
01:13PM 29.4993 -95.4400 55° Northeast 163 188 3,200 -720 Descending FlightAware ADS-B
01:13PM 29.5106 -95.4278 43° Northeast 146 168 3,000 -660 Descending FlightAware ADS-B
01:13PM 29.5202 -95.4167 45° Northeast 146 168 2,800 -480 Descending FlightAware ADS-B
01:13PM 29.5221 -95.4145 45° Northeast 154 177 2,800 -300 Level FlightAware ADS-B
01:14PM 29.5295 -95.4062 44° Northeast 148 170 2,700 -480 Descending FlightAware ADS-B
01:14PM 29.5346 -95.4007 43° Northeast 151 174 2,600 -900 Descending FlightAware ADS-B
01:14PM 29.5398 -95.3949 44° Northeast 151 174 2,400 -900 Descending FlightAware ADS-B
01:14PM 29.5446 -95.3896 44° Northeast 151 174 2,300 -660 Descending FlightAware ADS-B
01:14PM 29.5491 -95.3846 44° Northeast 149 171 2,200 -720 Descending FlightAware ADS-B
01:14PM 29.5537 -95.3795 44° Northeast 148 170 2,100 -900 Descending FlightAware ADS-B
01:15PM 29.5590 -95.3736 44° Northeast 149 171 1,900 -1,020 Descending FlightAware ADS-B
01:15PM 29.5639 -95.3682 44° Northeast 149 171 1,800 -840 Descending FlightAware ADS-B
01:15PM 29.5666 -95.3653 43° Northeast 149 171 1,700 -540 Descending FlightAware ADS-B
01:15PM 29.5743 -95.3569 43° Northeast 141 162 1,600 -300 Descending FlightAware ADS-B
01:15PM 29.5775 -95.3534 44° Northeast 130 150 1,600  Level FlightAware ADS-B
01:15PM 29.5811 -95.3493 45° Northeast 122 140 1,600  Level FlightAware ADS-B
01:15PM 29.5829 -95.3474 43° Northeast 122 140 1,600  Level FlightAware ADS-B
01:15PM 29.5846 -95.3455 43° Northeast 120 138 1,600 -360 Level FlightAware ADS-B
01:16PM 29.5891 -95.3405 44° Northeast 122 140 1,500 -540 Descending FlightAware ADS-B
01:16PM 29.5910 -95.3383 44° Northeast 118 136 1,500 -480 Level FlightAware ADS-B
01:16PM 29.5942 -95.3348 44° Northeast 112 129 1,400 -900 Descending FlightAware ADS-B
01:16PM 29.5987 -95.3299 44° Northeast 110 127 1,200 -840 Descending FlightAware ADS-B
01:16PM 29.5998 -95.3287 43° Northeast 110 127 1,200  Level FlightAware ADS-B
01:16PM 29.6019 -95.3264 44° Northeast 108 124 1,200 -480 Level FlightAware ADS-B
01:16PM 29.6036 -95.3245 43° Northeast 108 124 1,100 -780 Descending FlightAware ADS-B
01:17PM 29.6077 -95.3200 44° Northeast 108 124 1,000 -660 Descending FlightAware ADS-B
01:17PM 29.6114 -95.3160 43° Northeast 105 121 900 -540 Descending FlightAware ADS-B
01:17PM 29.6130 -95.3142 45° Northeast 106 122 900 -420 Level FlightAware ADS-B
01:17PM 29.6218 -95.3042 44° Northeast 105 121 700 -600 Descending FlightAware ADS-B
01:18PM 29.6310 -95.2944 43° Northeast 112 129 400 -660 Descending FlightAware ADS-B
01:18PM 29.6392 -95.2867 43° Northeast 112 129 100 180 Descending Houston Center
01:20PM 29.6454 -95.2789 49° Northeast  Level Estimated
02:35PM 30.0184 -95.3762 49° Northeast 294 338 17,000  Level FlightAware ADS-B
02:36PM 30.0558 -95.3960 335° Northwest 292 336 18,300 2,640 Climbing FlightAware ADS-B
02:36PM 30.0644 -95.4006 335° Northwest 294 338 18,500 1,800 Climbing FlightAware ADS-B
02:36PM 30.1020 -95.4205 335° Northwest 303 349 19,400 1,740 Climbing FlightAware ADS-B
02:37PM 30.1591 -95.4509 335° Northwest 314 361 20,800 2,040 Climbing FlightAware ADS-B
02:37PM 30.1669 -95.4551 335° Northwest 309 356 21,000 1,800 Climbing FlightAware ADS-B
02:38PM 30.1996 -95.4725 335° Northwest 320 368 21,700 1,620 Climbing FlightAware ADS-B
02:38PM 30.2417 -95.4950 335° Northwest 323 372 22,600 1,800 Climbing FlightAware ADS-B
02:39PM 30.2735 -95.5120 335° Northwest 322 371 23,400 1,800 Climbing FlightAware ADS-B
02:39PM 30.2814 -95.5174 329° Northwest 319 367 23,500 1,380 Climbing FlightAware ADS-B
02:39PM 30.2891 -95.5254 318° Northwest 316 364 23,700 1,860 Climbing FlightAware ADS-B
02:39PM 30.2982 -95.5362 314° West 317 365 24,000 1,680 Climbing FlightAware ADS-B
02:39PM 30.3292 -95.5731 314° West 319 367 24,800 1,440 Climbing FlightAware ADS-B
02:40PM 30.3605 -95.6115 313° West 325 374 25,500 1,440 Climbing FlightAware ADS-B
02:40PM 30.3921 -95.6515 312° West 329 379 26,300 1,320 Climbing FlightAware ADS-B
02:41PM 30.4254 -95.6933 313° West 338 389 26,900 1,200 Climbing FlightAware ADS-B
02:41PM 30.4347 -95.7038 316° Northwest 343 395 27,100 1,140 Climbing FlightAware ADS-B
02:41PM 30.4503 -95.7181 322° Northwest 349 402 27,300 1,260 Climbing FlightAware ADS-B
02:41PM 30.4604 -95.7254 328° Northwest 352 405 27,500 1,500 Climbing FlightAware ADS-B
02:42PM 30.4734 -95.7329 334° Northwest 356 410 27,700 1,500 Climbing FlightAware ADS-B
02:42PM 30.4844 -95.7379 339° North 359 413 27,900 1,260 Climbing FlightAware ADS-B
02:42PM 30.5342 -95.7556 343° North 367 422 28,500 1,020 Climbing FlightAware ADS-B
02:43PM 30.5851 -95.7742 343° North 374 430 29,000 1,260 Climbing FlightAware ADS-B
02:43PM 30.6355 -95.7923 343° North 373 429 29,800 1,560 Climbing FlightAware ADS-B
02:44PM 30.6864 -95.8104 343° North 371 427 30,600 1,260 Climbing FlightAware ADS-B
02:44PM 30.7415 -95.8303 343° North 377 434 31,200 1,200 Climbing FlightAware ADS-B
02:45PM 30.7917 -95.8483 343° North 376 433 31,900 1,320 Climbing FlightAware ADS-B
02:45PM 30.8448 -95.8673 343° North 376 433 32,600 1,500 Climbing FlightAware ADS-B
02:46PM 30.8962 -95.8858 343° North 369 425 33,500 1,200 Climbing FlightAware ADS-B
02:46PM 30.9484 -95.9047 343° North 378 435 33,900 840 Climbing FlightAware ADS-B
02:47PM 30.9998 -95.9232 343° North 380 437 34,400 1,140 Climbing FlightAware ADS-B
02:47PM 31.0511 -95.9417 343° North 379 436 35,100 1,560 Climbing FlightAware ADS-B
02:48PM 31.1010 -95.9596 343° North 366 421 36,000 1,440 Climbing FlightAware ADS-B
02:48PM 31.1499 -95.9776 343° North 367 422 36,600 1,260 Climbing FlightAware ADS-B
02:49PM 31.1978 -95.9963 342° North 359 413 37,300 1,200 Climbing FlightAware ADS-B
02:49PM 31.2486 -96.0162 341° North 360 414 37,900 900 Climbing FlightAware ADS-B
02:50PM 31.2970 -96.0350 342° North 361 415 38,300 1,080 Climbing FlightAware ADS-B
02:50PM 31.3454 -96.0537 342° North 356 410 39,000 720 Climbing FlightAware ADS-B
02:56PM 31.8447 -96.2572 341° North 352 405 43,000 660 Climbing FlightAware ADS-B
02:57PM 31.8851 -96.2951 321° Northwest 354 407 43,000  Level FlightAware ADS-B
02:57PM 31.9312 -96.3368 322° Northwest 357 411 43,000  Level FlightAware ADS-B
02:58PM 31.9736 -96.3754 322° Northwest 361 415 43,000  Level FlightAware ADS-B
02:58PM 32.0365 -96.4331 322° Northwest 363 418 43,000  Level FlightAware ADS-B
02:59PM 32.0768 -96.4701 322° Northwest 365 420 43,000  Level FlightAware ADS-B
03:00PM 32.1402 -96.5284 322° Northwest 367 422 43,000  Level FlightAware ADS-B
03:00PM 32.1807 -96.5658 322° Northwest 369 425 43,000  Level FlightAware ADS-B